Terminal Aerodrome Forecast
Issued by NWS Denver/Boulder, CO

Home | Current Version | Previous Version | Graphics & Text | Print | Product List | Glossary On
Versions: 1 2 3 4 5 6 7 8 9 10 11 12 13 14 15 16 17 18 19 20 21 22 23 24 25 26 27 28 29 30 31 32 33 34 35 36 37 38 39 40 41 42 43 44 45 46 47 48 49 50
000
FTUS45 KBOU 221518 AAB
TAFDEN
TAF AMD
KDEN 221518Z 2215/2318 16005KT P6SM SCT080 BKN120
     FM221800 14010KT P6SM VCTS SCT080CB BKN120
      TEMPO 2221/2301 VRB20G35KT 4SM TSRA BKN050CB
     FM230100 19012KT P6SM VCSH SCT035 OVC060
      TEMPO 2301/2304 VRB15G25KT 4SM TSRA BKN035CB
     FM230400 23007KT P6SM SCT050 OVC080 PROB30 2304/2308 -SHRA
      BKN050
     FM230800 23007KT P6SM SCT080 BKN120=

USA.gov is the U.S. government's official web portal to all federal, state and local government web resources and services.